Time,TemperatureF,DewpointF,PressureIn,WindDirection,WindDirectionDegrees,WindSpeedMPH,WindSpeedGustMPH,Humidity,HourlyPrecipIn,Conditions,Clouds,dailyrainin,SoftwareType,DateUTC
2013-04-30 00:00:00,60.5,45.0,29.74,SE,124,0.0,4.0,57,0.00,,,0.00,weatherlink.com 1.10,2013-04-30 07:00:00,
2013-04-30 00:15:00,60.9,45.0,29.75,SE,126,1.0,7.0,57,0.00,,,0.00,weatherlink.com 1.10,2013-04-30 07:15:00,
2013-04-30 00:30:00,60.8,45.0,29.75,South,179,0.0,6.0,57,0.00,,,0.00,weatherlink.com 1.10,2013-04-30 07:30:00,
2013-04-30 00:45:00,60.7,46.0,29.75,SE,129,0.0,6.0,58,0.00,,,0.00,weatherlink.com 1.10,2013-04-30 07:45:00,
2013-04-30 01:00:00,60.0,45.0,29.75,SE,141,0.0,3.0,58,0.00,,,0.00,weatherlink.com 1.10,2013-04-30 08:00:00,
2013-04-30 01:15:00,60.0,45.0,29.74,East,100,0.0,5.0,59,0.00,,,0.00,weatherlink.com 1.10,2013-04-30 08:15:00,
2013-04-30 01:30:00,59.7,45.0,29.75,NE,44,0.0,9.0,59,0.00,,,0.00,weatherlink.com 1.10,2013-04-30 08:30:00,
2013-04-30 01:45:00,58.9,45.0,29.75,ENE,76,0.0,6.0,61,0.00,,,0.00,weatherlink.com 1.10,2013-04-30 08:45:00,
2013-04-30 02:00:00,58.5,45.0,29.75,ENE,59,0.0,4.0,61,0.00,,,0.00,weatherlink.com 1.10,2013-04-30 09:00:00,
2013-04-30 02:15:00,58.3,45.0,29.74,West,272,1.0,7.0,61,0.00,,,0.00,weatherlink.com 1.10,2013-04-30 09:15:00,
2013-04-30 02:30:00,58.1,45.0,29.74,SSE,149,1.0,4.0,61,0.00,,,0.00,weatherlink.com 1.10,2013-04-30 09:30:00,
2013-04-30 02:45:00,57.6,44.0,29.75,SW,218,0.0,3.0,62,0.00,,,0.00,weatherlink.com 1.10,2013-04-30 09:45:00,
2013-04-30 03:00:00,57.2,45.0,29.75,NE,45,1.0,6.0,63,0.00,,,0.00,weatherlink.com 1.10,2013-04-30 10:00:00,
2013-04-30 03:15:00,56.8,45.0,29.75,NE,45,0.0,4.0,64,0.00,,,0.00,weatherlink.com 1.10,2013-04-30 10:15:00,
2013-04-30 03:30:00,56.4,45.0,29.75,NE,45,1.0,4.0,65,0.00,,,0.00,weatherlink.com 1.10,2013-04-30 10:30:00,
2013-04-30 03:45:00,56.2,45.0,29.75,NNE,21,0.0,3.0,66,0.00,,,0.00,weatherlink.com 1.10,2013-04-30 10:45:00,
2013-04-30 04:00:00,55.8,45.0,29.75,NE,54,0.0,1.0,68,0.00,,,0.00,weatherlink.com 1.10,2013-04-30 11:00:00,
2013-04-30 04:15:00,56.1,45.0,29.75,South,191,0.0,3.0,67,0.00,,,0.00,weatherlink.com 1.10,2013-04-30 11:15:00,
2013-04-30 04:30:00,56.3,45.0,29.75,NE,37,0.0,3.0,67,0.00,,,0.00,weatherlink.com 1.10,2013-04-30 11:30:00,
2013-04-30 04:45:00,55.5,45.0,29.75,ENE,76,0.0,1.0,68,0.00,,,0.00,weatherlink.com 1.10,2013-04-30 11:45:00,
2013-04-30 05:00:00,53.9,45.0,29.75,ENE,76,0.0,0.0,72,0.00,,,0.00,weatherlink.com 1.10,2013-04-30 12:00:00,
2013-04-30 05:15:00,53.0,45.0,29.75,ESE,108,0.0,1.0,74,0.00,,,0.00,weatherlink.com 1.10,2013-04-30 12:15:00,
2013-04-30 05:31:00,52.4,45.0,29.76,SE,139,0.0,1.0,76,0.00,,,0.00,weatherlink.com 1.10,2013-04-30 12:31:00,
2013-04-30 05:46:00,52.5,45.0,29.76,NW,307,0.0,1.0,76,0.00,,,0.00,weatherlink.com 1.10,2013-04-30 12:46:00,
2013-04-30 06:01:00,54.4,46.0,29.76,ENE,72,0.0,3.0,72,0.00,,,0.00,weatherlink.com 1.10,2013-04-30 13:01:00,
2013-04-30 06:16:00,55.1,45.0,29.77,NE,54,0.0,3.0,70,0.00,,,0.00,weatherlink.com 1.10,2013-04-30 13:16:00,
2013-04-30 06:31:00,55.2,45.0,29.77,SE,133,1.0,4.0,69,0.00,,,0.00,weatherlink.com 1.10,2013-04-30 13:31:00,
2013-04-30 06:46:00,55.5,45.0,29.77,NE,51,0.0,3.0,69,0.00,,,0.00,weatherlink.com 1.10,2013-04-30 13:46:00,
2013-04-30 07:01:00,54.8,46.0,29.78,NNE,27,0.0,1.0,73,0.00,,,0.00,weatherlink.com 1.10,2013-04-30 14:01:00,
2013-04-30 07:16:00,54.6,47.0,29.77,NNE,27,0.0,0.0,75,0.00,,,0.00,weatherlink.com 1.10,2013-04-30 14:16:00,
2013-04-30 07:31:00,55.1,47.0,29.78,NNE,27,0.0,0.0,74,0.00,,,0.00,weatherlink.com 1.10,2013-04-30 14:31:00,
2013-04-30 07:46:00,56.4,47.0,29.79,North,356,0.0,1.0,72,0.00,,,0.00,weatherlink.com 1.10,2013-04-30 14:46:00,
2013-04-30 08:01:00,57.9,46.0,29.79,ESE,122,0.0,1.0,65,0.00,,,0.00,weatherlink.com 1.10,2013-04-30 15:01:00,
2013-04-30 08:16:00,60.4,45.0,29.79,South,184,0.0,3.0,58,0.00,,,0.00,weatherlink.com 1.10,2013-04-30 15:16:00,
2013-04-30 08:31:00,62.2,47.0,29.80,NE,51,1.0,3.0,57,0.00,,,0.00,weatherlink.com 1.10,2013-04-30 15:31:00,
2013-04-30 08:46:00,63.4,46.0,29.80,SW,221,0.0,1.0,53,0.00,,,0.00,weatherlink.com 1.10,2013-04-30 15:46:00,
2013-04-30 09:01:00,65.2,44.0,29.80,NE,51,0.0,3.0,46,0.00,,,0.00,weatherlink.com 1.10,2013-04-30 16:01:00,
2013-04-30 09:16:00,66.3,43.0,29.80,SE,128,0.0,6.0,43,0.00,,,0.00,weatherlink.com 1.10,2013-04-30 16:16:00,
2013-04-30 09:31:00,66.6,44.0,29.80,East,88,1.0,7.0,44,0.00,,,0.00,weatherlink.com 1.10,2013-04-30 16:31:00,
2013-04-30 09:46:00,68.1,41.0,29.80,NE,50,2.0,8.0,38,0.00,,,0.00,weatherlink.com 1.10,2013-04-30 16:46:00,
2013-04-30 10:01:00,69.9,42.0,29.80,NW,306,2.0,6.0,37,0.00,,,0.00,weatherlink.com 1.10,2013-04-30 17:01:00,
2013-04-30 10:16:00,70.0,43.0,29.80,NNW,333,3.0,8.0,38,0.00,,,0.00,weatherlink.com 1.10,2013-04-30 17:16:00,
2013-04-30 10:31:00,71.1,44.0,29.80,NE,39,5.0,10.0,38,0.00,,,0.00,weatherlink.com 1.10,2013-04-30 17:31:00,
2013-04-30 10:46:00,72.2,44.0,29.81,NNE,27,4.0,4.0,37,0.00,,,0.00,weatherlink.com 1.10,2013-04-30 17:46:00,
2013-04-30 11:02:00,73.3,44.0,29.80,North,358,3.0,7.0,35,0.00,,,0.00,weatherlink.com 1.10,2013-04-30 18:02:00,
2013-04-30 11:16:00,74.0,45.0,29.80,NNE,32,5.0,7.0,35,0.00,,,0.00,weatherlink.com 1.10,2013-04-30 18:16:00,
2013-04-30 11:31:00,74.8,45.0,29.80,ENE,58,1.0,7.0,35,0.00,,,0.00,weatherlink.com 1.10,2013-04-30 18:31:00,
2013-04-30 11:47:00,76.1,44.0,29.80,NNE,13,4.0,7.0,32,0.00,,,0.00,weatherlink.com 1.10,2013-04-30 18:47:00,
2013-04-30 12:02:00,77.9,42.0,29.79,ESE,122,1.0,7.0,28,0.00,,,0.00,weatherlink.com 1.10,2013-04-30 19:02:00,
2013-04-30 12:17:00,79.0,47.0,29.78,SSE,147,0.0,7.0,32,0.00,,,0.00,weatherlink.com 1.10,2013-04-30 19:17:00,
2013-04-30 12:32:00,79.5,45.0,29.78,ENE,64,5.0,9.0,29,0.00,,,0.00,weatherlink.com 1.10,2013-04-30 19:32:00,
2013-04-30 13:02:00,80.8,43.0,29.77,NW,323,2.0,11.0,26,0.00,,,0.00,weatherlink.com 1.10,2013-04-30 20:02:00,
2013-04-30 13:17:00,81.7,43.0,29.77,NE,56,6.0,11.0,25,0.00,,,0.00,weatherlink.com 1.10,2013-04-30 20:17:00,
2013-04-30 13:32:00,81.3,42.0,29.77,NNE,29,6.0,9.0,25,0.00,,,0.00,weatherlink.com 1.10,2013-04-30 20:32:00,
2013-04-30 13:47:00,81.9,42.0,29.76,ENE,58,2.0,10.0,24,0.00,,,0.00,weatherlink.com 1.10,2013-04-30 20:47:00,
2013-04-30 14:02:00,82.5,45.0,29.76,North,5,2.0,11.0,27,0.00,,,0.00,weatherlink.com 1.10,2013-04-30 21:02:00,
2013-04-30 14:17:00,81.0,45.0,29.76,North,11,3.0,10.0,28,0.00,,,0.00,weatherlink.com 1.10,2013-04-30 21:17:00,
2013-04-30 14:32:00,81.8,44.0,29.76,ENE,59,3.0,8.0,26,0.00,,,0.00,weatherlink.com 1.10,2013-04-30 21:32:00,
2013-04-30 14:47:00,82.1,46.0,29.76,NE,34,2.0,6.0,28,0.00,,,0.00,weatherlink.com 1.10,2013-04-30 21:47:00,
2013-04-30 15:02:00,81.9,46.0,29.76,NNW,331,1.0,8.0,28,0.00,,,0.00,weatherlink.com 1.10,2013-04-30 22:02:00,
2013-04-30 15:17:00,81.1,46.0,29.76,North,1,1.0,7.0,29,0.00,,,0.00,weatherlink.com 1.10,2013-04-30 22:17:00,
2013-04-30 15:32:00,81.3,46.0,29.75,SW,231,0.0,8.0,29,0.00,,,0.00,weatherlink.com 1.10,2013-04-30 22:32:00,
2013-04-30 15:47:00,81.2,45.0,29.76,North,3,0.0,6.0,28,0.00,,,0.00,weatherlink.com 1.10,2013-04-30 22:47:00,
2013-04-30 16:02:00,82.3,45.0,29.75,SE,124,3.0,6.0,27,0.00,,,0.00,weatherlink.com 1.10,2013-04-30 23:02:00,
2013-04-30 16:17:00,80.3,45.0,29.75,NW,321,4.0,7.0,29,0.00,,,0.00,weatherlink.com 1.10,2013-04-30 23:17:00,
2013-04-30 16:32:00,79.9,45.0,29.75,NNW,336,3.0,9.0,29,0.00,,,0.00,weatherlink.com 1.10,2013-04-30 23:32:00,
2013-04-30 16:47:00,79.3,46.0,29.75,NNW,345,1.0,7.0,31,0.00,,,0.00,weatherlink.com 1.10,2013-04-30 23:47:00,
2013-04-30 17:02:00,79.7,46.0,29.75,NNW,333,3.0,7.0,30,0.00,,,0.00,weatherlink.com 1.10,2013-05-01 00:02:00,
2013-04-30 17:17:00,81.2,46.0,29.75,SSE,156,0.0,3.0,29,0.00,,,0.00,weatherlink.com 1.10,2013-05-01 00:17:00,
2013-04-30 17:32:00,80.2,46.0,29.74,SE,130,1.0,3.0,30,0.00,,,0.00,weatherlink.com 1.10,2013-05-01 00:32:00,
2013-04-30 17:47:00,79.0,46.0,29.75,West,269,0.0,3.0,31,0.00,,,0.00,weatherlink.com 1.10,2013-05-01 00:47:00,
2013-04-30 18:02:00,77.9,46.0,29.75,NW,325,0.0,2.0,32,0.00,,,0.00,weatherlink.com 1.10,2013-05-01 01:02:00,
2013-04-30 18:17:00,76.2,45.0,29.75,South,176,0.0,2.0,33,0.00,,,0.00,weatherlink.com 1.10,2013-05-01 01:17:00,
2013-04-30 18:32:00,75.0,46.0,29.75,WSW,255,0.0,1.0,35,0.00,,,0.00,weatherlink.com 1.10,2013-05-01 01:32:00,
2013-04-30 18:47:00,73.9,45.0,29.75,NE,42,1.0,4.0,36,0.00,,,0.00,weatherlink.com 1.10,2013-05-01 01:47:00,
2013-04-30 19:02:00,72.6,45.0,29.75,SSE,155,0.0,3.0,37,0.00,,,0.00,weatherlink.com 1.10,2013-05-01 02:02:00,
2013-04-30 19:17:00,71.5,44.0,29.75,East,101,1.0,1.0,38,0.00,,,0.00,weatherlink.com 1.10,2013-05-01 02:17:00,
2013-04-30 19:32:00,70.1,45.0,29.75,WSW,251,1.0,1.0,41,0.00,,,0.00,weatherlink.com 1.10,2013-05-01 02:32:00,
2013-04-30 19:47:00,67.7,47.0,29.76,SSE,163,0.0,0.0,48,0.00,,,0.00,weatherlink.com 1.10,2013-05-01 02:47:00,
2013-04-30 20:02:00,65.5,47.0,29.77,SW,230,0.0,1.0,51,0.00,,,0.00,weatherlink.com 1.10,2013-05-01 03:02:00,
2013-04-30 20:17:00,63.4,47.0,29.77,SW,230,0.0,1.0,55,0.00,,,0.00,weatherlink.com 1.10,2013-05-01 03:17:00,
2013-04-30 20:32:00,61.4,47.0,29.78,SW,230,0.0,0.0,59,0.00,,,0.00,weatherlink.com 1.10,2013-05-01 03:32:00,
2013-04-30 20:47:00,60.0,46.0,29.79,WSW,240,0.0,1.0,61,0.00,,,0.00,weatherlink.com 1.10,2013-05-01 03:47:00,
2013-04-30 21:02:00,59.7,46.0,29.79,SSW,206,0.0,0.0,61,0.00,,,0.00,weatherlink.com 1.10,2013-05-01 04:02:00,
2013-04-30 21:17:00,58.8,46.0,29.80,SSW,200,0.0,0.0,62,0.00,,,0.00,weatherlink.com 1.10,2013-05-01 04:17:00,
2013-04-30 21:32:00,59.1,45.0,29.80,North,4,1.0,2.0,61,0.00,,,0.00,weatherlink.com 1.10,2013-05-01 04:32:00,
2013-04-30 21:47:00,58.5,43.0,29.80,SSE,163,0.0,2.0,57,0.00,,,0.00,weatherlink.com 1.10,2013-05-01 04:47:00,
2013-04-30 22:02:00,60.1,44.0,29.80,North,1,0.0,4.0,56,0.00,,,0.00,weatherlink.com 1.10,2013-05-01 05:02:00,
2013-04-30 22:17:00,59.4,40.0,29.81,NW,311,1.0,1.0,49,0.00,,,0.00,weatherlink.com 1.10,2013-05-01 05:17:00,
2013-04-30 22:32:00,59.7,33.0,29.81,NW,311,1.0,2.0,36,0.00,,,0.00,weatherlink.com 1.10,2013-05-01 05:32:00,
2013-04-30 22:47:00,69.0,18.0,29.81,NW,305,4.0,11.0,14,0.00,,,0.00,weatherlink.com 1.10,2013-05-01 05:47:00,
2013-04-30 23:02:00,71.8,14.0,29.81,NW,321,3.0,6.0,11,0.00,,,0.00,weatherlink.com 1.10,2013-05-01 06:02:00,
2013-04-30 23:17:00,73.9,11.0,29.81,SW,226,0.0,18.0,9,0.00,,,0.00,weatherlink.com 1.10,2013-05-01 06:17:00,
2013-04-30 23:32:00,72.3,13.0,29.81,WNW,290,2.0,9.0,10,0.00,,,0.00,weatherlink.com 1.10,2013-05-01 06:32:00,
2013-04-30 23:47:00,73.4,11.0,29.81,South,175,2.0,8.0,9,0.00,,,0.00,weatherlink.com 1.10,2013-05-01 06:47:00,